Corpus Christi, Texas
Current Conditions -  °F | °C
As of 7:51 AM on Saturday 25 Oct 2014 (Local Time) from KCRP Reporting Station
Clear Clear  
Wind Chill: 62°   Ceiling: Unl
Heat Index: 62°   Visibility: 9mi
Dew Point: 59°   Wind: 5mph
Humidity: 90%   Direction: 330°NNW
Pressure: 30.14"   Gusts: NA
Location:  27.8°N, 97.4°W
Report Text: KCRP 251251Z 33004KT 9SM CLR 17/15 A3014 RMK AO2 SLP203 T01670150
Loading
Personal Weather Stations






























Interactive Weather Map New forecast layout! Learn more

10-Day Weather Forecast

Advertisements
Track Severe Weather on mobile